createdAt,value
2022-10-23T00:01:36.733Z,100273.00
2022-10-23T00:04:11.460Z,100269.00
2022-10-23T00:06:39.697Z,100274.00
2022-10-23T00:09:09.580Z,100282.00
2022-10-23T00:11:37.981Z,100285.00
2022-10-23T00:14:07.896Z,100286.00
2022-10-23T00:16:36.344Z,100287.00
2022-10-23T00:19:06.107Z,100288.00
2022-10-23T00:21:34.140Z,100289.00
2022-10-23T00:24:02.202Z,100286.00
2022-10-23T00:26:30.107Z,100288.00
2022-10-23T00:28:57.910Z,100288.00
2022-10-23T00:31:26.485Z,100288.00
2022-10-23T00:33:54.614Z,100290.00
2022-10-23T00:36:23.024Z,100288.00
2022-10-23T00:38:51.491Z,100285.00
2022-10-23T00:41:23.154Z,100285.00
2022-10-23T00:44:31.025Z,100275.00
2022-10-23T00:46:59.656Z,100286.00
2022-10-23T00:49:28.548Z,100282.00
2022-10-23T00:52:04.556Z,100276.00
2022-10-23T00:54:38.821Z,100276.00
2022-10-23T00:57:08.848Z,100287.00
2022-10-23T00:59:36.857Z,100283.00
2022-10-23T01:02:08.582Z,100291.00
2022-10-23T01:04:37.469Z,100294.00
2022-10-23T01:07:22.419Z,100285.00
2022-10-23T01:10:46.277Z,100274.00
2022-10-23T01:13:40.805Z,100269.00
2022-10-23T01:16:11.812Z,100271.00
2022-10-23T01:19:17.233Z,100269.00
2022-10-23T01:22:09.491Z,100264.00
2022-10-23T01:24:54.836Z,100260.00
2022-10-23T01:27:24.926Z,100260.00
2022-10-23T01:30:06.649Z,100255.00
2022-10-23T01:32:56.914Z,100248.00
2022-10-23T01:36:01.967Z,100247.00
2022-10-23T01:38:55.589Z,100246.00
2022-10-23T01:42:03.499Z,100239.00
2022-10-23T01:44:39.101Z,100248.00
2022-10-23T01:47:09.377Z,100250.00
2022-10-23T01:49:52.203Z,100241.00
2022-10-23T01:52:21.216Z,100235.00
2022-10-23T01:54:52.240Z,100243.00
2022-10-23T01:57:22.258Z,100243.00
2022-10-23T01:59:59.051Z,100239.00
2022-10-23T02:02:27.910Z,100236.00
2022-10-23T02:05:12.306Z,100226.00
2022-10-23T02:07:40.453Z,100231.00
2022-10-23T02:10:09.824Z,100226.00
2022-10-23T02:13:00.854Z,100224.00
2022-10-23T02:15:48.598Z,100224.00
2022-10-23T02:18:31.608Z,100217.00
2022-10-23T02:21:14.750Z,100223.00
2022-10-23T02:24:03.820Z,100213.00
2022-10-23T02:26:42.664Z,100206.00
2022-10-23T02:29:39.113Z,100203.00
2022-10-23T02:32:10.074Z,100199.00
2022-10-23T02:34:37.966Z,100199.00
2022-10-23T02:37:05.791Z,100201.00
2022-10-23T02:39:36.763Z,100204.00
2022-10-23T02:42:12.439Z,100209.00
2022-10-23T02:44:56.612Z,100213.00
2022-10-23T02:47:37.030Z,100208.00
2022-10-23T02:50:33.087Z,100208.00
2022-10-23T02:53:37.257Z,100201.00
2022-10-23T02:56:31.834Z,100195.00
2022-10-23T02:59:11.854Z,100196.00
2022-10-23T03:01:52.564Z,100198.00
2022-10-23T03:04:25.193Z,100196.00
2022-10-23T03:06:53.814Z,100193.00
2022-10-23T03:09:21.566Z,100200.00
2022-10-23T03:11:49.354Z,100184.00
2022-10-23T03:14:17.052Z,100183.00
2022-10-23T03:16:45.927Z,100183.00
2022-10-23T03:19:13.734Z,100192.00
2022-10-23T03:21:41.738Z,100196.00
2022-10-23T03:24:09.753Z,100189.00
2022-10-23T03:26:43.636Z,100183.00
2022-10-23T03:29:11.564Z,100185.00
2022-10-23T03:31:46.969Z,100179.00
2022-10-23T03:34:15.229Z,100182.00
2022-10-23T03:36:43.739Z,100194.00
2022-10-23T03:39:12.098Z,100186.00
2022-10-23T03:41:40.091Z,100181.00
2022-10-23T03:44:08.685Z,100176.00
2022-10-23T03:46:36.690Z,100183.00
2022-10-23T03:49:05.897Z,100178.00
2022-10-23T03:51:34.718Z,100174.00
2022-10-23T03:54:02.389Z,100168.00
2022-10-23T03:56:30.157Z,100161.00
2022-10-23T03:58:57.879Z,100163.00
2022-10-23T04:01:27.346Z,100153.00
2022-10-23T04:03:55.871Z,100154.00
2022-10-23T04:06:25.880Z,100156.00
2022-10-23T04:08:57.527Z,100148.00
2022-10-23T04:11:25.349Z,100161.00
2022-10-23T04:13:53.298Z,100158.00
2022-10-23T04:16:21.062Z,100162.00
2022-10-23T04:18:48.836Z,100162.00
2022-10-23T04:21:17.339Z,100162.00
2022-10-23T04:23:45.533Z,100156.00
2022-10-23T04:26:16.181Z,100167.00
2022-10-23T04:28:43.979Z,100168.00
2022-10-23T04:31:11.829Z,100167.00
2022-10-23T04:33:42.188Z,100168.00
2022-10-23T04:36:10.760Z,100171.00
2022-10-23T04:38:41.143Z,100172.00
2022-10-23T04:41:09.542Z,100162.00
2022-10-23T04:43:37.817Z,100164.00
2022-10-23T04:46:05.891Z,100167.00
2022-10-23T04:48:34.946Z,100160.00
2022-10-23T04:51:21.506Z,100159.00
2022-10-23T04:54:09.824Z,100154.00
2022-10-23T04:57:07.008Z,100148.00
2022-10-23T04:59:53.030Z,100155.00
2022-10-23T05:02:20.924Z,100148.00
2022-10-23T05:04:50.665Z,100148.00
2022-10-23T05:07:34.312Z,100151.00
2022-10-23T05:10:21.930Z,100154.00
2022-10-23T05:13:09.921Z,100152.00
2022-10-23T05:15:37.851Z,100150.00
2022-10-23T05:18:14.057Z,100153.00
2022-10-23T05:20:42.254Z,100152.00
2022-10-23T05:23:13.063Z,100162.00
2022-10-23T05:25:43.724Z,100157.00
2022-10-23T05:28:17.990Z,100152.00
2022-10-23T05:30:46.127Z,100151.00
2022-10-23T05:33:15.077Z,100151.00
2022-10-23T05:35:45.679Z,100148.00
2022-10-23T05:38:16.255Z,100146.00
2022-10-23T05:40:45.047Z,100149.00
2022-10-23T05:43:18.835Z,100133.00
2022-10-23T05:46:07.589Z,100134.00
2022-10-23T05:51:59.836Z,100131.00
2022-10-23T05:54:42.736Z,100144.00
2022-10-23T05:57:46.149Z,100146.00
2022-10-23T06:00:16.780Z,100147.00
2022-10-23T06:02:52.544Z,100141.00
2022-10-23T06:05:33.082Z,100137.00
2022-10-23T06:08:22.062Z,100144.00
2022-10-23T06:10:51.746Z,100135.00
2022-10-23T06:13:20.653Z,100135.00
2022-10-23T06:15:48.842Z,100133.00
2022-10-23T06:18:22.549Z,100129.00
2022-10-23T06:20:57.053Z,100128.00
2022-10-23T06:23:27.271Z,100122.00
2022-10-23T06:26:15.807Z,100117.00
2022-10-23T06:29:22.283Z,100124.00
2022-10-23T06:31:51.655Z,100129.00
2022-10-23T06:34:19.502Z,100126.00
2022-10-23T06:36:48.195Z,100130.00
2022-10-23T06:39:31.974Z,100127.00
2022-10-23T06:42:22.863Z,100134.00
2022-10-23T06:44:57.217Z,100135.00
2022-10-23T06:47:43.991Z,100141.00
2022-10-23T06:50:33.818Z,100136.00
2022-10-23T06:53:07.096Z,100134.00
2022-10-23T06:55:40.246Z,100128.00
2022-10-23T06:58:10.999Z,100125.00
2022-10-23T07:00:53.699Z,100130.00
2022-10-23T07:03:21.605Z,100134.00
2022-10-23T07:05:50.574Z,100131.00
2022-10-23T07:08:19.193Z,100139.00
2022-10-23T07:10:50.898Z,100138.00
2022-10-23T07:13:24.934Z,100124.00
2022-10-23T07:15:59.062Z,100118.00
2022-10-23T07:18:28.219Z,100119.00
2022-10-23T07:21:28.876Z,100123.00
2022-10-23T07:24:04.993Z,100114.00
2022-10-23T07:26:36.349Z,100121.00
2022-10-23T07:29:04.390Z,100117.00
2022-10-23T07:31:34.752Z,100127.00
2022-10-23T07:34:38.510Z,100117.00
2022-10-23T07:37:30.674Z,100114.00
2022-10-23T07:40:01.262Z,100108.00
2022-10-23T07:42:30.032Z,100107.00
2022-10-23T07:44:58.551Z,100103.00
2022-10-23T07:47:26.592Z,100099.00
2022-10-23T07:49:54.429Z,100102.00
2022-10-23T07:52:22.441Z,100093.00
2022-10-23T07:55:12.330Z,100088.00
2022-10-23T07:57:53.446Z,100084.00
2022-10-23T08:00:45.260Z,100102.00
2022-10-23T08:03:27.791Z,100099.00
2022-10-23T08:05:56.678Z,100091.00
2022-10-23T08:08:25.461Z,100101.00
2022-10-23T08:10:57.211Z,100101.00
2022-10-23T08:13:30.013Z,100097.00
2022-10-23T08:16:04.981Z,100098.00
2022-10-23T08:19:02.382Z,100096.00
2022-10-23T08:21:30.666Z,100088.00
2022-10-23T08:24:00.059Z,100085.00
2022-10-23T08:26:31.500Z,100087.00
2022-10-23T08:29:00.615Z,100084.00
2022-10-23T08:31:30.265Z,100080.00
2022-10-23T08:34:15.853Z,100081.00
2022-10-23T08:36:48.312Z,100067.00
2022-10-23T08:39:16.365Z,100078.00
2022-10-23T08:42:00.068Z,100073.00
2022-10-23T08:44:31.744Z,100066.00
2022-10-23T08:47:04.506Z,100064.00
2022-10-23T08:50:15.468Z,100062.00
2022-10-23T08:52:54.116Z,100065.00
2022-10-23T08:55:28.519Z,100054.00
2022-10-23T08:58:08.191Z,100062.00
2022-10-23T09:00:36.118Z,100062.00
2022-10-23T09:03:06.182Z,100054.00
2022-10-23T09:06:03.671Z,100059.00
2022-10-23T09:08:37.406Z,100056.00
2022-10-23T09:11:10.870Z,100052.00
2022-10-23T09:14:05.999Z,100049.00
2022-10-23T09:16:45.465Z,100049.00
2022-10-23T09:19:18.534Z,100040.00
2022-10-23T09:21:50.144Z,100046.00
2022-10-23T09:24:20.324Z,100046.00
2022-10-23T09:26:50.518Z,100051.00
2022-10-23T09:29:35.850Z,100053.00
2022-10-23T09:32:07.738Z,100055.00
2022-10-23T09:34:36.210Z,100046.00
2022-10-23T09:37:25.630Z,100050.00
2022-10-23T09:40:31.261Z,100041.00
2022-10-23T09:43:01.855Z,100044.00
2022-10-23T09:45:35.102Z,100038.00
2022-10-23T09:48:13.813Z,100044.00
2022-10-23T09:50:53.885Z,100040.00
2022-10-23T09:53:33.090Z,100044.00
2022-10-23T09:56:04.291Z,100042.00
2022-10-23T09:58:38.676Z,100038.00
2022-10-23T10:01:07.061Z,100035.00
2022-10-23T10:03:53.305Z,100043.00
2022-10-23T10:06:29.121Z,100033.00
2022-10-23T10:09:03.465Z,100042.00
2022-10-23T10:11:43.585Z,100031.00
2022-10-23T10:14:35.181Z,100040.00
2022-10-23T10:17:21.822Z,100038.00
2022-10-23T10:20:19.935Z,100033.00
2022-10-23T10:22:53.435Z,100032.00
2022-10-23T10:25:51.383Z,100026.00
2022-10-23T10:28:27.083Z,100012.00
2022-10-23T10:31:26.016Z,100019.00
2022-10-23T10:34:11.690Z,100010.00
2022-10-23T10:36:48.401Z,100006.00
2022-10-23T10:39:26.037Z,100000.00
2022-10-23T10:42:18.956Z,99999.00
2022-10-23T10:45:11.487Z,99997.00
2022-10-23T10:47:57.801Z,99985.00
2022-10-23T10:50:46.283Z,99982.00
2022-10-23T10:53:29.169Z,99980.00
2022-10-23T10:55:59.254Z,99977.00
2022-10-23T10:58:46.166Z,99979.00
2022-10-23T11:01:27.606Z,99978.00
2022-10-23T11:04:20.105Z,99969.00
2022-10-23T11:06:52.324Z,99959.00
2022-10-23T11:09:29.549Z,99967.00
2022-10-23T11:11:59.353Z,99962.00
2022-10-23T11:14:29.750Z,99962.00
2022-10-23T11:17:27.962Z,99961.00
2022-10-23T11:20:25.200Z,99950.00
2022-10-23T11:23:17.869Z,99948.00
2022-10-23T11:25:46.834Z,99941.00
2022-10-23T11:28:40.871Z,99945.00
2022-10-23T11:31:52.860Z,99939.00
2022-10-23T11:34:40.789Z,99931.00
2022-10-23T11:37:09.310Z,99928.00
2022-10-23T11:39:39.154Z,99927.00
2022-10-23T11:42:15.137Z,99922.00
2022-10-23T11:44:48.154Z,99916.00
2022-10-23T11:47:32.021Z,99916.00
2022-10-23T11:50:08.794Z,99908.00
2022-10-23T11:52:45.642Z,99902.00
2022-10-23T11:55:23.239Z,99893.00
2022-10-23T11:58:31.914Z,99897.00
2022-10-23T12:01:06.234Z,99881.00
2022-10-23T12:03:48.932Z,99879.00
2022-10-23T12:06:28.493Z,99876.00
2022-10-23T12:09:02.949Z,99879.00
2022-10-23T12:12:09.284Z,99871.00
2022-10-23T12:14:51.167Z,99875.00
2022-10-23T12:17:33.934Z,99876.00
2022-10-23T12:20:28.473Z,99864.00
2022-10-23T12:23:15.397Z,99855.00
2022-10-23T12:25:57.888Z,99853.00
2022-10-23T12:28:46.657Z,99842.00
2022-10-23T12:31:29.296Z,99846.00
2022-10-23T12:34:25.156Z,99841.00
2022-10-23T12:36:55.879Z,99846.00
2022-10-23T12:39:37.463Z,99843.00
2022-10-23T12:42:06.883Z,99837.00
2022-10-23T12:44:34.771Z,99828.00
2022-10-23T12:47:04.031Z,99821.00
2022-10-23T12:49:33.907Z,99810.00
2022-10-23T12:52:17.613Z,99798.00
2022-10-23T12:54:45.383Z,99799.00
2022-10-23T12:57:24.317Z,99803.00
2022-10-23T12:59:58.558Z,99799.00
2022-10-23T13:02:31.523Z,99796.00
2022-10-23T13:05:03.939Z,99791.00
2022-10-23T13:07:39.892Z,99784.00
2022-10-23T13:10:08.211Z,99776.00
2022-10-23T13:15:11.589Z,99774.00
2022-10-23T13:17:42.521Z,99772.00
2022-10-23T13:20:11.564Z,99772.00
2022-10-23T13:22:42.054Z,99768.00
2022-10-23T13:25:29.472Z,99768.00
2022-10-23T13:28:18.168Z,99763.00
2022-10-23T13:30:46.586Z,99752.00
2022-10-23T13:33:22.483Z,99754.00
2022-10-23T13:36:00.613Z,99751.00
2022-10-23T13:38:36.807Z,99756.00
2022-10-23T13:41:11.804Z,99749.00
2022-10-23T13:43:39.590Z,99734.00
2022-10-23T13:46:12.208Z,99726.00
2022-10-23T13:48:40.328Z,99726.00
2022-10-23T13:51:13.682Z,99725.00
2022-10-23T13:53:41.648Z,99727.00
2022-10-23T13:56:12.398Z,99733.00
2022-10-23T13:58:40.670Z,99737.00
2022-10-23T14:01:19.625Z,99737.00
2022-10-23T14:03:47.827Z,99734.00
2022-10-23T14:06:16.150Z,99734.00
2022-10-23T14:08:43.902Z,99732.00
2022-10-23T14:11:16.445Z,99725.00
2022-10-23T14:13:44.789Z,99727.00
2022-10-23T14:16:13.962Z,99724.00
2022-10-23T14:18:41.699Z,99716.00
2022-10-23T14:21:13.137Z,99714.00
2022-10-23T14:23:41.258Z,99718.00
2022-10-23T14:26:12.545Z,99707.00
2022-10-23T14:28:40.397Z,99701.00
2022-10-23T14:31:10.581Z,99704.00
2022-10-23T14:33:39.007Z,99709.00
2022-10-23T14:36:07.816Z,99705.00
2022-10-23T14:38:36.022Z,99708.00
2022-10-23T14:41:03.961Z,99694.00
2022-10-23T14:43:31.860Z,99681.00
2022-10-23T14:46:12.551Z,99661.00
2022-10-23T14:48:42.594Z,99666.00
2022-10-23T14:51:21.932Z,99667.00
2022-10-23T14:53:51.423Z,99655.00
2022-10-23T14:56:20.192Z,99665.00
2022-10-23T14:58:48.105Z,99663.00
2022-10-23T15:01:16.378Z,99651.00
2022-10-23T15:03:44.327Z,99671.00
2022-10-23T15:06:16.054Z,99665.00
2022-10-23T15:08:46.175Z,99653.00
2022-10-23T15:11:14.031Z,99653.00
2022-10-23T15:13:41.836Z,99650.00
2022-10-23T15:16:11.219Z,99654.00
2022-10-23T15:18:39.290Z,99658.00
2022-10-23T15:21:08.661Z,99634.00
2022-10-23T15:23:39.452Z,99634.00
2022-10-23T15:26:10.335Z,99635.00
2022-10-23T15:28:38.499Z,99635.00
2022-10-23T15:31:06.678Z,99628.00
2022-10-23T15:33:34.901Z,99619.00
2022-10-23T15:36:02.865Z,99625.00
2022-10-23T15:38:30.786Z,99620.00
2022-10-23T15:41:04.321Z,99614.00
2022-10-23T15:43:32.137Z,99600.00
2022-10-23T15:45:59.773Z,99606.00
2022-10-23T15:48:27.538Z,99596.00
2022-10-23T15:50:56.669Z,99597.00
2022-10-23T15:53:24.582Z,99589.00
2022-10-23T15:55:52.389Z,99586.00
2022-10-23T15:58:20.194Z,99581.00
2022-10-23T16:00:48.142Z,99574.00
2022-10-23T16:03:16.201Z,99578.00
2022-10-23T16:05:44.095Z,99591.00
2022-10-23T16:08:11.951Z,99573.00
2022-10-23T16:10:41.576Z,99573.00
2022-10-23T16:13:09.876Z,99581.00
2022-10-23T16:15:38.188Z,99572.00
2022-10-23T16:18:06.801Z,99568.00
2022-10-23T16:20:34.695Z,99580.00
2022-10-23T16:23:02.554Z,99582.00
2022-10-23T16:25:30.580Z,99574.00
2022-10-23T16:28:00.051Z,99573.00
2022-10-23T16:30:27.765Z,99568.00
2022-10-23T16:32:55.502Z,99568.00
2022-10-23T16:35:23.339Z,99563.00
2022-10-23T16:38:03.136Z,99550.00
2022-10-23T16:40:31.251Z,99550.00
2022-10-23T16:43:17.875Z,99545.00
2022-10-23T16:46:13.931Z,99530.00
2022-10-23T16:48:42.659Z,99515.00
2022-10-23T16:51:16.175Z,99502.00
2022-10-23T16:53:45.080Z,99502.00
2022-10-23T16:56:15.525Z,99483.00
2022-10-23T16:58:43.448Z,99471.00
2022-10-23T17:01:12.501Z,99469.00
2022-10-23T17:03:48.884Z,99470.00
2022-10-23T17:06:19.061Z,99481.00
2022-10-23T17:08:47.533Z,99487.00
2022-10-23T17:11:18.201Z,99488.00
2022-10-23T17:13:51.354Z,99477.00
2022-10-23T17:16:24.969Z,99492.00
2022-10-23T17:18:52.924Z,99484.00
2022-10-23T17:21:22.098Z,99483.00
2022-10-23T17:23:50.581Z,99488.00
2022-10-23T17:26:20.527Z,99489.00
2022-10-23T17:28:48.499Z,99501.00
2022-10-23T17:31:28.190Z,99501.00
2022-10-23T17:33:58.809Z,99508.00
2022-10-23T17:36:30.972Z,99502.00
2022-10-23T17:38:59.378Z,99505.00
2022-10-23T17:41:27.989Z,99501.00
2022-10-23T17:43:59.624Z,99492.00
2022-10-23T17:46:29.476Z,99480.00
2022-10-23T17:48:58.540Z,99489.00
2022-10-23T17:51:28.602Z,99480.00
2022-10-23T17:54:00.171Z,99483.00
2022-10-23T17:56:31.102Z,99484.00
2022-10-23T17:59:12.241Z,99497.00
2022-10-23T18:01:40.898Z,99501.00
2022-10-23T18:04:09.334Z,99512.00
2022-10-23T18:06:43.093Z,99509.00
2022-10-23T18:09:13.964Z,99509.00
2022-10-23T18:11:45.545Z,99511.00
2022-10-23T18:14:17.226Z,99508.00
2022-10-23T18:16:48.154Z,99510.00
2022-10-23T18:19:18.349Z,99505.00
2022-10-23T18:21:47.507Z,99513.00
2022-10-23T18:24:16.084Z,99508.00
2022-10-23T18:26:43.946Z,99508.00
2022-10-23T18:29:12.907Z,99511.00
2022-10-23T18:31:41.210Z,99512.00
2022-10-23T18:34:21.625Z,99510.00
2022-10-23T18:36:50.986Z,99500.00
2022-10-23T18:39:22.756Z,99505.00
2022-10-23T18:41:56.270Z,99512.00
2022-10-23T18:44:25.824Z,99511.00
2022-10-23T18:46:53.719Z,99519.00
2022-10-23T18:49:21.638Z,99516.00
2022-10-23T18:51:52.653Z,99523.00
2022-10-23T18:54:21.771Z,99530.00
2022-10-23T18:56:49.821Z,99540.00
2022-10-23T18:59:20.186Z,99540.00
2022-10-23T19:01:48.640Z,99545.00
2022-10-23T19:04:18.092Z,99555.00
2022-10-23T19:06:47.227Z,99569.00
2022-10-23T19:09:15.496Z,99570.00
2022-10-23T19:11:43.506Z,99564.00
2022-10-23T19:14:11.429Z,99572.00
2022-10-23T19:17:00.910Z,99577.00
2022-10-23T19:19:36.812Z,99574.00
2022-10-23T19:22:05.172Z,99571.00
2022-10-23T19:24:38.018Z,99580.00
2022-10-23T19:27:05.917Z,99583.00
2022-10-23T19:29:34.012Z,99578.00
2022-10-23T19:32:02.026Z,99575.00
2022-10-23T19:34:29.841Z,99577.00
2022-10-23T19:36:57.837Z,99585.00
2022-10-23T19:39:26.696Z,99588.00
2022-10-23T19:41:55.236Z,99586.00
2022-10-23T19:44:23.325Z,99576.00
2022-10-23T19:46:51.798Z,99590.00
2022-10-23T19:49:20.192Z,99592.00
2022-10-23T19:51:51.291Z,99594.00
2022-10-23T19:54:20.680Z,99593.00
2022-10-23T19:56:48.948Z,99598.00
2022-10-23T19:59:16.751Z,99582.00
2022-10-23T20:01:47.809Z,99588.00
2022-10-23T20:04:18.568Z,99594.00
2022-10-23T20:06:47.175Z,99589.00
2022-10-23T20:09:15.253Z,99591.00
2022-10-23T20:11:45.582Z,99599.00
2022-10-23T20:14:14.299Z,99599.00
2022-10-23T20:16:45.121Z,99601.00
2022-10-23T20:21:50.633Z,99611.00
2022-10-23T20:24:19.649Z,99601.00
2022-10-23T20:26:50.746Z,99609.00
2022-10-23T20:29:18.920Z,99607.00
2022-10-23T20:31:46.872Z,99615.00
2022-10-23T20:34:14.734Z,99612.00
2022-10-23T20:36:46.701Z,99618.00
2022-10-23T20:39:21.023Z,99603.00
2022-10-23T20:41:49.349Z,99610.00
2022-10-23T20:44:18.345Z,99609.00
2022-10-23T20:46:46.687Z,99599.00
2022-10-23T20:49:15.096Z,99611.00
2022-10-23T20:51:43.232Z,99604.00
2022-10-23T20:54:11.064Z,99607.00
2022-10-23T20:56:40.342Z,99613.00
2022-10-23T20:59:12.203Z,99617.00
2022-10-23T21:01:45.756Z,99605.00
2022-10-23T21:04:14.681Z,99593.00
2022-10-23T21:07:04.751Z,99560.00
2022-10-23T21:09:33.667Z,99529.00
2022-10-23T21:12:01.475Z,99526.00
2022-10-23T21:14:29.113Z,99518.00
2022-10-23T21:16:56.855Z,99505.00
2022-10-23T21:19:24.484Z,99483.00
2022-10-23T21:21:52.615Z,99489.00
2022-10-23T21:24:20.527Z,99504.00
2022-10-23T21:26:48.368Z,99513.00
2022-10-23T21:29:19.163Z,99505.00
2022-10-23T21:31:58.702Z,99502.00
2022-10-23T21:34:27.397Z,99503.00
2022-10-23T21:39:43.907Z,99506.00
2022-10-23T21:42:13.034Z,99498.00
2022-10-23T21:44:40.888Z,99510.00
2022-10-23T21:47:08.778Z,99509.00
2022-10-23T21:49:36.490Z,99513.00
2022-10-23T21:52:04.851Z,99507.00
2022-10-23T21:54:33.029Z,99510.00
2022-10-23T21:57:01.935Z,99499.00
2022-10-23T21:59:31.673Z,99500.00
2022-10-23T22:02:01.059Z,99496.00
2022-10-23T22:04:29.360Z,99512.00
2022-10-23T22:06:57.370Z,99519.00
2022-10-23T22:09:25.087Z,99512.00
2022-10-23T22:11:54.435Z,99513.00
2022-10-23T22:14:23.173Z,99500.00
2022-10-23T22:16:52.553Z,99508.00
2022-10-23T22:19:21.425Z,99502.00
2022-10-23T22:21:50.394Z,99503.00
2022-10-23T22:24:18.434Z,99510.00
2022-10-23T22:26:52.032Z,99516.00
2022-10-23T22:29:22.565Z,99503.00
2022-10-23T22:31:51.168Z,99494.00
2022-10-23T22:34:47.916Z,99473.00
2022-10-23T22:37:11.332Z,99470.00
2022-10-23T22:39:40.361Z,99468.00
2022-10-23T22:42:08.288Z,99468.00
2022-10-23T22:44:36.078Z,99468.00
2022-10-23T22:47:03.853Z,99472.00
2022-10-23T22:49:31.578Z,99494.00
2022-10-23T22:51:59.631Z,99494.00
2022-10-23T22:54:27.683Z,99499.00
2022-10-23T22:56:55.422Z,99501.00
2022-10-23T22:59:23.172Z,99503.00
2022-10-23T23:01:52.011Z,99520.00
2022-10-23T23:07:12.513Z,99524.00
2022-10-23T23:09:42.208Z,99525.00
2022-10-23T23:12:11.810Z,99528.00
2022-10-23T23:14:39.892Z,99529.00
2022-10-23T23:17:08.751Z,99536.00
2022-10-23T23:19:39.362Z,99531.00
2022-10-23T23:22:07.063Z,99539.00
2022-10-23T23:24:35.135Z,99535.00
2022-10-23T23:27:02.924Z,99538.00
2022-10-23T23:29:30.547Z,99529.00
2022-10-23T23:31:58.528Z,99529.00
2022-10-23T23:34:26.320Z,99532.00
2022-10-23T23:36:54.657Z,99528.00
2022-10-23T23:39:22.656Z,99529.00
2022-10-23T23:41:50.523Z,99533.00
2022-10-23T23:44:18.369Z,99541.00
2022-10-23T23:46:46.448Z,99545.00
2022-10-23T23:49:14.262Z,99546.00
2022-10-23T23:51:42.330Z,99538.00
2022-10-23T23:54:10.339Z,99536.00
2022-10-23T23:56:38.137Z,99536.00
2022-10-23T23:59:06.090Z,99536.00
